Impacts TAF Board INFO
FOR SITUATIONAL AWARENESS. NOT TO BE USED FOR FLIGHT PLANNING PURPOSES.
IDs:

KBOS - Boston/Logan Intl, MA, US

Issued at 2320 UTC 10 Dec 2017
Updated at 0221 UTC 11 Dec 2017
Potential Impact None Slight Moderate High
Time0154Z 11/03Z 11/04Z 11/05Z 11/06Z 11/07Z 11/08Z 11/09Z 11/10Z 11/11Z 11/12Z 11/13Z 11/14Z 11/15Z>>
Type OBS PRVL PRVL PRVL PRVL PRVL PRVL PRVL PRVL PRVL PRVL PRVL PRVL PRVL
VIS 10 >6 >6 >6 >6 >6 >6 >6 >6 >6 >6 >6 >6 >6
CIG 150 -- 80 80 80 80 80 80 80 80 80 80 80 80
Cover OVC FEW BKN BKN BKN BKN BKN BKN BKN BKN BKN BKN BKN BKN
FltCat VFR VFR VFR VFR VFR VFR VFR VFR VFR VFR VFR VFR VFR VFR
WX -- -- -- -- -- -- -- -- -- -- -- -- -- --
WDir 230 230 230 230 230 230 230 230 230 230 230 230 230 230
WSpd 9 9 8 8 8 8 8 8 8 8 8 8 8 8
WGst -- -- -- -- -- -- -- -- -- -- -- -- -- --

Raw TAF
KBOS 102320Z 1100/1206 23009KT P6SM FEW100
  FM110400 23008KT P6SM BKN080
  FM120300 VRB03KT P6SM BKN110


Raw METAR
KBOS 110154Z 23009KT 10SM SCT140 OVC150 00/M04 A2995 RMK AO2 SLP141 T00001039
KBOS 110054Z 23010KT 10SM SCT220 BKN250 00/M04 A2994 RMK AO2 SLP138 T00001039
KBOS 102354Z 23011KT 10SM BKN220 01/M04 A2993 RMK AO2 SLP133 T00061044 10033 20006 51022

METAR Board
Radar Display
Forecast Discussion

FOR SITUATIONAL AWARENESS. NOT TO BE USED FOR FLIGHT PLANNING PURPOSES.